Bethel Heights, Arkansas
Current Conditions -  °F | °C
As of 8:48 AM on Thursday 18 Dec 2014 (Local Time) from KASG Reporting Station
Drizzle Drizzle  
Wind Chill: 29°   Ceiling: 700
Heat Index: 36°   Visibility: 5mi
Dew Point: 36°   Wind: 8mph
Humidity: 100%   Direction: 150°SSE
Pressure: 30.2"   Gusts: NA
Location:  36.1771°N, 94.0897°W
Report Text: KASG 181448Z 15007KT 5SM DZBR OVC007 02/02 A3020
Loading
Personal Weather Stations






























Interactive Weather Map New forecast layout! Learn more

10-Day Weather Forecast

Advertisements
Track Severe Weather on mobile